createdAt,value
2023-03-06T00:00:35.457Z,17.68
2023-03-06T00:01:35.509Z,17.67
2023-03-06T00:02:35.562Z,17.68
2023-03-06T00:03:35.650Z,17.67
2023-03-06T00:04:35.659Z,17.67
2023-03-06T00:05:34.755Z,17.67
2023-03-06T00:06:35.744Z,17.66
2023-03-06T00:07:35.798Z,17.67
2023-03-06T00:08:35.882Z,17.67
2023-03-06T00:09:35.902Z,17.67
2023-03-06T00:10:35.951Z,17.67
2023-03-06T00:11:36.002Z,17.66
2023-03-06T00:12:36.038Z,17.66
2023-03-06T00:13:35.114Z,17.68
2023-03-06T00:14:35.108Z,17.68
2023-03-06T00:15:36.147Z,17.69
2023-03-06T00:16:36.315Z,17.69
2023-03-06T00:17:36.233Z,17.71
2023-03-06T00:18:36.265Z,17.72
2023-03-06T00:19:35.345Z,17.73
2023-03-06T00:20:35.332Z,17.75
2023-03-06T00:21:36.370Z,17.76
2023-03-06T00:22:36.383Z,17.78
2023-03-06T00:23:36.429Z,17.80
2023-03-06T00:24:36.424Z,17.82
2023-03-06T00:25:36.431Z,17.84
2023-03-06T00:26:35.448Z,17.86
2023-03-06T00:27:35.456Z,17.88
2023-03-06T00:28:35.463Z,17.91
2023-03-06T00:29:36.485Z,17.95
2023-03-06T00:30:36.565Z,17.97
2023-03-06T00:31:36.539Z,18.00
2023-03-06T00:32:35.554Z,18.02
2023-03-06T00:33:36.449Z,18.04
2023-03-06T00:34:35.453Z,18.06
2023-03-06T00:35:36.556Z,18.07
2023-03-06T00:36:36.476Z,18.10
2023-03-06T00:37:35.514Z,18.11
2023-03-06T00:38:36.479Z,18.15
2023-03-06T00:39:36.477Z,18.17
2023-03-06T00:40:35.486Z,18.19
2023-03-06T00:41:36.497Z,18.20
2023-03-06T00:42:36.543Z,18.21
2023-03-06T00:43:36.517Z,18.23
2023-03-06T00:44:36.542Z,18.25
2023-03-06T00:45:36.573Z,18.26
2023-03-06T00:46:36.540Z,18.29
2023-03-06T00:47:36.531Z,18.30
2023-03-06T00:48:36.556Z,18.32
2023-03-06T00:49:36.536Z,18.32
2023-03-06T00:50:36.541Z,18.34
2023-03-06T00:51:36.535Z,18.34
2023-03-06T00:52:35.541Z,18.36
2023-03-06T00:53:36.600Z,18.38
2023-03-06T00:54:36.549Z,18.39
2023-03-06T00:55:36.575Z,18.40
2023-03-06T00:56:36.560Z,18.41
2023-03-06T00:57:36.595Z,18.43
2023-03-06T00:58:36.602Z,18.44
2023-03-06T00:59:35.647Z,18.44
2023-03-06T01:00:36.782Z,18.44
2023-03-06T01:01:36.754Z,18.45
2023-03-06T01:02:36.809Z,18.47
2023-03-06T01:03:36.849Z,18.48
2023-03-06T01:04:36.904Z,18.48
2023-03-06T01:05:36.962Z,18.49
2023-03-06T01:06:37.042Z,18.49
2023-03-06T01:07:37.085Z,18.50
2023-03-06T01:08:37.147Z,18.50
2023-03-06T01:09:37.218Z,18.51
2023-03-06T01:10:36.243Z,18.52
2023-03-06T01:11:36.292Z,18.54
2023-03-06T01:12:37.362Z,18.56
2023-03-06T01:13:37.448Z,18.56
2023-03-06T01:14:37.501Z,18.57
2023-03-06T01:15:37.552Z,18.59
2023-03-06T01:16:37.660Z,18.58
2023-03-06T01:17:36.691Z,18.59
2023-03-06T01:18:36.752Z,18.60
2023-03-06T01:19:37.820Z,18.61
2023-03-06T01:20:36.882Z,18.60
2023-03-06T01:21:37.955Z,18.60
2023-03-06T01:22:38.001Z,18.62
2023-03-06T01:23:38.063Z,18.64
2023-03-06T01:24:38.124Z,18.64
2023-03-06T01:25:38.213Z,18.64
2023-03-06T01:26:38.252Z,18.65
2023-03-06T01:27:38.312Z,18.65
2023-03-06T01:28:38.371Z,18.66
2023-03-06T01:29:38.430Z,18.67
2023-03-06T01:30:38.488Z,18.68
2023-03-06T01:31:38.654Z,18.67
2023-03-06T01:32:38.717Z,18.68
2023-03-06T01:33:38.685Z,18.69
2023-03-06T01:34:37.746Z,18.69
2023-03-06T01:35:37.849Z,18.69
2023-03-06T01:36:38.855Z,18.70
2023-03-06T01:37:38.918Z,18.70
2023-03-06T01:38:38.980Z,18.71
2023-03-06T01:39:39.035Z,18.71
2023-03-06T01:40:39.112Z,18.71
2023-03-06T01:41:38.196Z,18.72
2023-03-06T01:42:39.219Z,18.72
2023-03-06T01:43:39.270Z,18.74
2023-03-06T01:44:39.338Z,18.75
2023-03-06T01:45:39.399Z,18.74
2023-03-06T01:46:38.438Z,18.75
2023-03-06T01:47:39.496Z,18.76
2023-03-06T01:48:39.565Z,18.76
2023-03-06T01:49:39.635Z,18.76
2023-03-06T01:50:38.673Z,18.77
2023-03-06T01:51:39.722Z,18.78
2023-03-06T01:52:39.816Z,18.79
2023-03-06T01:53:39.853Z,18.79
2023-03-06T01:54:38.906Z,18.80
2023-03-06T01:55:39.938Z,18.80
2023-03-06T01:56:38.996Z,18.80
2023-03-06T01:57:40.075Z,18.81
2023-03-06T01:58:40.101Z,18.81
2023-03-06T01:59:39.147Z,18.81
2023-03-06T02:00:40.211Z,18.81
2023-03-06T02:01:40.247Z,18.82
2023-03-06T02:02:40.345Z,18.83
2023-03-06T02:03:39.352Z,18.83
2023-03-06T02:04:40.454Z,18.83
2023-03-06T02:05:39.461Z,18.84
2023-03-06T02:06:40.525Z,18.85
2023-03-06T02:07:40.577Z,18.85
2023-03-06T02:08:40.632Z,18.85
2023-03-06T02:09:40.690Z,18.86
2023-03-06T02:10:40.731Z,18.86
2023-03-06T02:11:40.823Z,18.86
2023-03-06T02:12:40.825Z,18.87
2023-03-06T02:13:40.902Z,18.88
2023-03-06T02:14:40.941Z,18.88
2023-03-06T02:15:40.965Z,18.88
2023-03-06T02:16:41.108Z,18.88
2023-03-06T02:17:40.081Z,18.89
2023-03-06T02:18:41.118Z,18.90
2023-03-06T02:19:40.156Z,18.90
2023-03-06T02:20:41.201Z,18.91
2023-03-06T02:21:41.289Z,18.92
2023-03-06T02:22:41.300Z,18.92
2023-03-06T02:23:41.339Z,18.93
2023-03-06T02:24:41.387Z,18.94
2023-03-06T02:25:40.424Z,18.94
2023-03-06T02:26:41.469Z,18.93
2023-03-06T02:27:41.524Z,18.94
2023-03-06T02:28:41.555Z,18.95
2023-03-06T02:29:41.614Z,18.95
2023-03-06T02:30:40.682Z,18.95
2023-03-06T02:31:41.675Z,18.96
2023-03-06T02:32:40.713Z,18.96
2023-03-06T02:33:41.756Z,18.96
2023-03-06T02:34:40.804Z,18.96
2023-03-06T02:35:41.895Z,18.96
2023-03-06T02:36:40.888Z,18.96
2023-03-06T02:37:40.938Z,18.96
2023-03-06T02:38:41.975Z,18.95
2023-03-06T02:39:42.008Z,18.95
2023-03-06T02:40:42.045Z,18.95
2023-03-06T02:41:42.091Z,18.96
2023-03-06T02:42:42.135Z,18.95
2023-03-06T02:43:41.172Z,18.96
2023-03-06T02:44:41.255Z,18.95
2023-03-06T02:45:41.289Z,18.96
2023-03-06T02:46:41.309Z,18.95
2023-03-06T02:47:42.362Z,18.96
2023-03-06T02:48:42.425Z,18.95
2023-03-06T02:49:42.458Z,18.94
2023-03-06T02:50:41.522Z,18.93
2023-03-06T02:51:42.603Z,18.93
2023-03-06T02:52:42.600Z,18.94
2023-03-06T02:53:42.649Z,18.94
2023-03-06T02:54:42.711Z,18.94
2023-03-06T02:55:42.746Z,18.94
2023-03-06T02:56:41.780Z,18.94
2023-03-06T02:57:42.840Z,18.94
2023-03-06T02:58:42.881Z,18.93
2023-03-06T02:59:42.943Z,18.92
2023-03-06T03:00:41.968Z,18.94
2023-03-06T03:01:43.116Z,18.93
2023-03-06T03:02:43.071Z,18.93
2023-03-06T03:03:42.110Z,18.93
2023-03-06T03:04:42.209Z,18.93
2023-03-06T03:05:43.222Z,18.92
2023-03-06T03:06:42.269Z,18.92
2023-03-06T03:07:43.320Z,18.93
2023-03-06T03:08:43.372Z,18.93
2023-03-06T03:09:43.425Z,18.92
2023-03-06T03:10:42.480Z,18.92
2023-03-06T03:11:43.561Z,18.92
2023-03-06T03:12:43.611Z,18.92
2023-03-06T03:13:42.627Z,18.92
2023-03-06T03:14:43.700Z,18.92
2023-03-06T03:15:43.790Z,18.92
2023-03-06T03:16:43.773Z,18.92
2023-03-06T03:17:43.865Z,18.93
2023-03-06T03:18:43.886Z,18.93
2023-03-06T03:19:43.916Z,18.93
2023-03-06T03:20:42.991Z,18.92
2023-03-06T03:21:44.009Z,18.93
2023-03-06T03:22:44.054Z,18.94
2023-03-06T03:23:44.105Z,18.94
2023-03-06T03:24:44.177Z,18.94
2023-03-06T03:25:43.221Z,18.94
2023-03-06T03:26:43.241Z,18.94
2023-03-06T03:27:44.282Z,18.94
2023-03-06T03:28:44.343Z,18.95
2023-03-06T03:29:44.369Z,18.94
2023-03-06T03:30:44.428Z,18.95
2023-03-06T03:31:43.470Z,18.96
2023-03-06T03:32:44.544Z,18.96
2023-03-06T03:33:44.602Z,18.96
2023-03-06T03:34:44.626Z,18.96
2023-03-06T03:35:44.696Z,18.96
2023-03-06T03:36:44.715Z,18.96
2023-03-06T03:37:44.743Z,18.97
2023-03-06T03:38:44.800Z,18.97
2023-03-06T03:39:44.837Z,18.97
2023-03-06T03:40:44.916Z,18.97
2023-03-06T03:41:44.934Z,18.97
2023-03-06T03:42:44.981Z,18.97
2023-03-06T03:43:44.033Z,18.97
2023-03-06T03:44:45.072Z,18.98
2023-03-06T03:45:45.154Z,18.99
2023-03-06T03:46:45.261Z,18.99
2023-03-06T03:47:45.199Z,19.00
2023-03-06T03:48:45.246Z,18.99
2023-03-06T03:49:45.323Z,19.00
2023-03-06T03:50:45.374Z,19.00
2023-03-06T03:51:45.387Z,19.00
2023-03-06T03:52:44.434Z,19.00
2023-03-06T03:53:45.456Z,19.01
2023-03-06T03:54:45.509Z,19.00
2023-03-06T03:55:45.566Z,19.01
2023-03-06T03:56:45.629Z,19.02
2023-03-06T03:57:45.628Z,19.01
2023-03-06T03:58:44.688Z,19.02
2023-03-06T03:59:45.715Z,19.01
2023-03-06T04:00:44.763Z,19.02
2023-03-06T04:01:45.860Z,19.02
2023-03-06T04:02:45.857Z,19.01
2023-03-06T04:03:45.869Z,19.02
2023-03-06T04:04:45.935Z,19.02
2023-03-06T04:05:44.983Z,19.02
2023-03-06T04:06:46.019Z,19.01
2023-03-06T04:07:46.077Z,19.02
2023-03-06T04:08:46.107Z,19.03
2023-03-06T04:09:46.126Z,19.03
2023-03-06T04:10:46.174Z,19.02
2023-03-06T04:11:46.222Z,19.03
2023-03-06T04:12:46.264Z,19.03
2023-03-06T04:13:46.381Z,19.03
2023-03-06T04:14:46.334Z,19.02
2023-03-06T04:15:46.371Z,19.03
2023-03-06T04:16:45.417Z,19.04
2023-03-06T04:17:46.463Z,19.04
2023-03-06T04:18:46.507Z,19.04
2023-03-06T04:19:45.554Z,19.04
2023-03-06T04:20:46.597Z,19.03
2023-03-06T04:21:46.644Z,19.03
2023-03-06T04:22:45.660Z,19.04
2023-03-06T04:23:46.699Z,19.03
2023-03-06T04:24:46.751Z,19.03
2023-03-06T04:25:45.776Z,19.03
2023-03-06T04:26:46.824Z,19.03
2023-03-06T04:27:46.874Z,19.03
2023-03-06T04:28:45.894Z,19.03
2023-03-06T04:29:46.938Z,19.03
2023-03-06T04:30:46.989Z,19.03
2023-03-06T04:31:47.050Z,19.03
2023-03-06T04:32:46.054Z,19.03
2023-03-06T04:33:46.104Z,19.02
2023-03-06T04:34:46.153Z,19.03
2023-03-06T04:35:47.244Z,19.03
2023-03-06T04:36:47.220Z,19.04
2023-03-06T04:37:46.286Z,19.04
2023-03-06T04:38:46.421Z,19.04
2023-03-06T04:39:47.335Z,19.04
2023-03-06T04:40:47.377Z,19.04
2023-03-06T04:41:46.422Z,19.04
2023-03-06T04:42:47.480Z,19.04
2023-03-06T04:43:47.482Z,19.04
2023-03-06T04:44:47.533Z,19.04
2023-03-06T04:45:47.654Z,19.05
2023-03-06T04:46:47.634Z,19.04
2023-03-06T04:47:47.652Z,19.04
2023-03-06T04:48:46.686Z,19.04
2023-03-06T04:49:47.734Z,19.04
2023-03-06T04:50:46.776Z,19.04
2023-03-06T04:51:47.819Z,19.04
2023-03-06T04:52:47.865Z,19.04
2023-03-06T04:53:46.921Z,19.04
2023-03-06T04:54:46.938Z,19.04
2023-03-06T04:55:47.993Z,19.05
2023-03-06T04:56:48.006Z,19.05
2023-03-06T04:57:48.034Z,19.04
2023-03-06T04:58:48.072Z,19.04
2023-03-06T04:59:47.119Z,19.05
2023-03-06T05:00:48.229Z,19.05
2023-03-06T05:01:47.270Z,19.04
2023-03-06T05:02:48.231Z,19.04
2023-03-06T05:03:48.253Z,19.04
2023-03-06T05:04:48.302Z,19.05
2023-03-06T05:05:48.341Z,19.05
2023-03-06T05:06:48.386Z,19.05
2023-03-06T05:07:47.441Z,19.04
2023-03-06T05:08:47.462Z,19.05
2023-03-06T05:09:48.506Z,19.05
2023-03-06T05:10:48.531Z,19.05
2023-03-06T05:11:48.575Z,19.05
2023-03-06T05:12:47.606Z,19.05
2023-03-06T05:13:48.656Z,19.06
2023-03-06T05:14:48.682Z,19.07
2023-03-06T05:15:48.696Z,19.06
2023-03-06T05:16:48.835Z,19.06
2023-03-06T05:17:48.784Z,19.06
2023-03-06T05:18:50.602Z,19.06
2023-03-06T05:19:48.793Z,19.07
2023-03-06T05:20:48.793Z,19.07
2023-03-06T05:21:48.791Z,19.07
2023-03-06T05:22:48.773Z,19.08
2023-03-06T05:23:48.770Z,19.08
2023-03-06T05:24:48.776Z,19.07
2023-03-06T05:25:48.773Z,19.08
2023-03-06T05:26:47.741Z,19.09
2023-03-06T05:27:48.740Z,19.09
2023-03-06T05:28:48.732Z,19.09
2023-03-06T05:29:49.408Z,19.09
2023-03-06T05:30:48.713Z,19.09
2023-03-06T05:31:48.826Z,19.10
2023-03-06T05:32:48.744Z,19.10
2023-03-06T05:33:48.702Z,19.10
2023-03-06T05:34:48.679Z,19.11
2023-03-06T05:35:48.736Z,19.11
2023-03-06T05:36:48.681Z,19.11
2023-03-06T05:37:48.685Z,19.11
2023-03-06T05:38:48.688Z,19.11
2023-03-06T05:39:48.662Z,19.11
2023-03-06T05:40:48.659Z,19.11
2023-03-06T05:41:48.664Z,19.11
2023-03-06T05:42:48.651Z,19.11
2023-03-06T05:43:48.645Z,19.12
2023-03-06T05:44:48.623Z,19.11
2023-03-06T05:45:47.665Z,19.12
2023-03-06T05:46:47.610Z,19.11
2023-03-06T05:47:48.608Z,19.12
2023-03-06T05:48:48.587Z,19.12
2023-03-06T05:49:47.593Z,19.13
2023-03-06T05:50:48.595Z,19.13
2023-03-06T05:51:47.571Z,19.13
2023-03-06T05:52:48.619Z,19.13
2023-03-06T05:53:48.750Z,19.14
2023-03-06T05:54:48.698Z,19.14
2023-03-06T05:55:48.729Z,19.14
2023-03-06T05:56:47.777Z,19.14
2023-03-06T05:57:48.843Z,19.15
2023-03-06T05:58:47.873Z,19.14
2023-03-06T05:59:48.908Z,19.14
2023-03-06T06:00:47.958Z,19.14
2023-03-06T06:01:48.998Z,19.15
2023-03-06T06:02:49.044Z,19.15
2023-03-06T06:03:49.153Z,19.15
2023-03-06T06:04:49.122Z,19.14
2023-03-06T06:05:48.160Z,19.15
2023-03-06T06:06:49.205Z,19.17
2023-03-06T06:07:49.277Z,19.17
2023-03-06T06:08:49.293Z,19.17
2023-03-06T06:09:49.322Z,19.18
2023-03-06T06:10:51.581Z,19.19
2023-03-06T06:11:48.368Z,19.18
2023-03-06T06:12:49.369Z,19.18
2023-03-06T06:13:49.364Z,19.18
2023-03-06T06:14:48.339Z,19.19
2023-03-06T06:15:49.410Z,19.18
2023-03-06T06:16:49.342Z,19.19
2023-03-06T06:17:49.349Z,19.18
2023-03-06T06:18:49.321Z,19.19
2023-03-06T06:19:48.310Z,19.19
2023-03-06T06:20:49.312Z,19.20
2023-03-06T06:21:49.302Z,19.20
2023-03-06T06:22:49.303Z,19.19
2023-03-06T06:23:48.288Z,19.19
2023-03-06T06:24:49.298Z,19.20
2023-03-06T06:25:49.294Z,19.21
2023-03-06T06:26:49.264Z,19.22
2023-03-06T06:27:49.314Z,19.23
2023-03-06T06:28:49.340Z,19.25
2023-03-06T06:29:49.419Z,19.26
2023-03-06T06:30:49.463Z,19.26
2023-03-06T06:31:48.443Z,19.28
2023-03-06T06:32:49.482Z,19.31
2023-03-06T06:33:49.498Z,19.34
2023-03-06T06:34:49.534Z,19.36
2023-03-06T06:35:49.589Z,19.38
2023-03-06T06:36:52.213Z,19.41
2023-03-06T06:37:49.580Z,19.43
2023-03-06T06:38:49.543Z,19.45
2023-03-06T06:39:49.547Z,19.44
2023-03-06T06:41:26.897Z,19.47
2023-03-06T06:42:14.537Z,19.49
2023-03-06T06:42:49.529Z,19.51
2023-03-06T06:43:49.532Z,19.53
2023-03-06T06:44:49.623Z,19.56
2023-03-06T06:45:50.424Z,19.59
2023-03-06T06:47:49.552Z,19.61
2023-03-06T06:48:49.469Z,19.64
2023-03-06T06:49:49.482Z,19.65
2023-03-06T06:50:49.490Z,19.68
2023-03-06T06:51:49.541Z,19.71
2023-03-06T06:52:49.505Z,19.72
2023-03-06T06:53:49.446Z,19.73
2023-03-06T06:54:49.442Z,19.76
2023-03-06T06:55:49.462Z,19.77
2023-03-06T06:56:49.428Z,19.80
2023-03-06T06:57:49.429Z,19.83
2023-03-06T06:58:49.420Z,19.85
2023-03-06T06:59:51.262Z,19.90
2023-03-06T07:00:49.413Z,19.95
2023-03-06T07:01:49.460Z,19.98
2023-03-06T07:02:49.456Z,20.01
2023-03-06T07:03:49.398Z,20.07
2023-03-06T07:05:03.013Z,20.10
2023-03-06T07:05:49.375Z,20.14
2023-03-06T07:06:48.936Z,20.16
2023-03-06T07:07:49.370Z,20.17
2023-03-06T07:08:49.325Z,20.19
2023-03-06T07:09:49.315Z,20.23
2023-03-06T07:10:49.320Z,20.25
2023-03-06T07:11:49.354Z,20.26
2023-03-06T07:12:49.332Z,20.30
2023-03-06T07:13:49.311Z,20.34
2023-03-06T07:14:49.296Z,20.37
2023-03-06T07:15:48.326Z,20.40
2023-03-06T07:16:49.278Z,20.43
2023-03-06T07:17:50.294Z,20.44
2023-03-06T07:18:48.263Z,20.44
2023-03-06T07:19:49.275Z,20.44
2023-03-06T07:20:49.240Z,20.45
2023-03-06T07:21:49.277Z,20.46
2023-03-06T07:22:51.602Z,20.48
2023-03-06T07:23:49.284Z,20.48
2023-03-06T07:24:49.267Z,20.50
2023-03-06T07:25:48.218Z,20.54
2023-03-06T07:26:48.208Z,20.56
2023-03-06T07:27:53.475Z,20.58
2023-03-06T07:28:52.750Z,20.60
2023-03-06T07:29:49.174Z,20.60
2023-03-06T07:30:48.162Z,20.63
2023-03-06T07:31:49.172Z,20.65
2023-03-06T07:32:49.188Z,20.65
2023-03-06T07:33:49.178Z,20.67
2023-03-06T07:34:49.193Z,20.68
2023-03-06T07:35:49.156Z,20.70
2023-03-06T07:36:49.149Z,20.71
2023-03-06T07:37:48.121Z,20.72
2023-03-06T07:38:49.156Z,20.73
2023-03-06T07:39:49.122Z,20.75
2023-03-06T07:40:49.110Z,20.76
2023-03-06T07:41:49.102Z,20.77
2023-03-06T07:42:49.132Z,20.77
2023-03-06T07:43:49.093Z,20.78
2023-03-06T07:44:48.100Z,20.77
2023-03-06T07:45:49.070Z,20.78
2023-03-06T07:46:49.107Z,20.80
2023-03-06T07:47:49.049Z,20.79
2023-03-06T07:48:49.069Z,20.80
2023-03-06T07:49:48.073Z,20.81
2023-03-06T07:50:48.056Z,20.82
2023-03-06T07:51:49.058Z,20.83
2023-03-06T07:52:49.037Z,20.82
2023-03-06T07:53:49.449Z,20.85
2023-03-06T07:54:49.018Z,20.84
2023-03-06T07:55:49.015Z,20.73
2023-03-06T07:56:49.009Z,20.64
2023-03-06T07:57:49.004Z,20.64
2023-03-06T07:58:49.467Z,20.65
2023-03-06T07:59:47.971Z,20.66
2023-03-06T08:00:48.969Z,20.71
2023-03-06T08:01:48.956Z,20.73
2023-03-06T08:02:49.045Z,20.74
2023-03-06T08:03:48.979Z,20.77
2023-03-06T08:04:48.941Z,20.80
2023-03-06T08:05:49.004Z,20.82
2023-03-06T08:06:48.941Z,20.83
2023-03-06T08:07:48.937Z,20.85
2023-03-06T08:08:48.949Z,20.87
2023-03-06T08:09:48.909Z,20.89
2023-03-06T08:10:48.924Z,20.90
2023-03-06T08:11:48.959Z,20.93
2023-03-06T08:12:48.987Z,20.97
2023-03-06T08:13:49.042Z,21.01
2023-03-06T08:14:49.056Z,21.02
2023-03-06T08:15:48.061Z,21.02
2023-03-06T08:16:48.126Z,21.04
2023-03-06T08:17:49.145Z,21.05
2023-03-06T08:18:48.204Z,21.09
2023-03-06T08:19:49.249Z,21.12
2023-03-06T08:20:49.321Z,21.14
2023-03-06T08:21:49.408Z,21.16
2023-03-06T08:22:48.442Z,21.18
2023-03-06T08:23:49.479Z,21.18
2023-03-06T08:24:49.506Z,21.19
2023-03-06T08:25:49.559Z,21.23
2023-03-06T08:26:49.644Z,21.24
2023-03-06T08:27:49.722Z,21.24
2023-03-06T08:28:49.742Z,21.26
2023-03-06T08:29:49.803Z,21.29
2023-03-06T08:30:49.858Z,21.31
2023-03-06T08:31:49.971Z,21.35
2023-03-06T08:32:49.021Z,21.36
2023-03-06T08:33:50.064Z,21.35
2023-03-06T08:34:50.104Z,21.36
2023-03-06T08:35:50.217Z,21.38
2023-03-06T08:36:49.231Z,21.39
2023-03-06T08:37:50.303Z,21.41
2023-03-06T08:38:49.324Z,21.44
2023-03-06T08:39:50.356Z,21.47
2023-03-06T08:40:50.398Z,21.50
2023-03-06T08:41:50.435Z,21.52
2023-03-06T08:42:50.484Z,21.56
2023-03-06T08:43:50.517Z,21.57
2023-03-06T08:44:50.568Z,21.58
2023-03-06T08:45:50.696Z,21.58
2023-03-06T08:46:50.637Z,21.59
2023-03-06T08:47:50.722Z,21.58
2023-03-06T08:48:51.018Z,21.59
2023-03-06T08:49:49.825Z,21.59
2023-03-06T08:50:49.873Z,21.59
2023-03-06T08:51:50.913Z,21.59
2023-03-06T08:52:50.002Z,21.58
2023-03-06T08:53:51.065Z,21.60
2023-03-06T08:54:51.067Z,21.61
2023-03-06T08:55:51.104Z,21.62
2023-03-06T08:56:51.154Z,21.63
2023-03-06T08:57:51.211Z,21.65
2023-03-06T08:58:51.246Z,21.66
2023-03-06T08:59:50.262Z,21.67
2023-03-06T09:00:50.446Z,21.67
2023-03-06T09:01:51.367Z,21.68
2023-03-06T09:02:50.392Z,21.71
2023-03-06T09:03:51.461Z,21.75
2023-03-06T09:04:50.506Z,21.78
2023-03-06T09:05:50.507Z,21.82
2023-03-06T09:06:51.530Z,21.86
2023-03-06T09:07:50.566Z,21.89
2023-03-06T09:08:51.588Z,21.91
2023-03-06T09:09:51.691Z,21.92
2023-03-06T09:10:51.757Z,21.93
2023-03-06T09:11:51.702Z,21.93
2023-03-06T09:12:54.416Z,21.91
2023-03-06T09:13:51.726Z,21.89
2023-03-06T09:14:51.692Z,21.88
2023-03-06T09:15:51.699Z,21.88
2023-03-06T09:16:51.749Z,21.86
2023-03-06T09:17:51.697Z,21.85
2023-03-06T09:18:51.681Z,21.85
2023-03-06T09:19:51.658Z,21.85
2023-03-06T09:20:51.672Z,21.84
2023-03-06T09:21:51.670Z,21.84
2023-03-06T09:22:51.650Z,21.83
2023-03-06T09:23:51.645Z,21.83
2023-03-06T09:24:51.641Z,21.87
2023-03-06T09:25:50.650Z,21.89
2023-03-06T09:26:51.836Z,21.88
2023-03-06T09:28:08.658Z,21.87
2023-03-06T09:28:51.617Z,21.85
2023-03-06T09:29:51.597Z,21.85
2023-03-06T09:30:51.619Z,21.84
2023-03-06T09:31:50.568Z,21.85
2023-03-06T09:32:51.572Z,21.89
2023-03-06T09:33:51.574Z,21.90
2023-03-06T09:34:50.570Z,21.91
2023-03-06T09:35:51.582Z,21.90
2023-03-06T09:36:56.505Z,21.89
2023-03-06T09:37:51.550Z,21.88
2023-03-06T09:38:51.541Z,21.90
2023-03-06T09:39:51.523Z,21.90
2023-03-06T09:40:50.536Z,21.90
2023-03-06T09:41:51.549Z,21.86
2023-03-06T09:42:51.517Z,21.76
2023-03-06T09:43:51.996Z,21.67
2023-03-06T09:44:51.512Z,21.59
2023-03-06T09:45:51.563Z,21.52
2023-03-06T09:46:51.479Z,21.42
2023-03-06T09:47:51.478Z,21.36
2023-03-06T09:48:51.471Z,21.29
2023-03-06T09:49:50.478Z,21.11
2023-03-06T09:50:51.450Z,21.06
2023-03-06T09:51:50.453Z,21.05
2023-03-06T09:52:51.475Z,21.05
2023-03-06T09:53:51.433Z,21.04
2023-03-06T09:54:51.423Z,21.05
2023-03-06T09:55:51.417Z,21.07
2023-03-06T09:56:51.411Z,21.09
2023-03-06T09:57:52.439Z,21.11
2023-03-06T09:58:51.537Z,21.17
2023-03-06T09:59:50.398Z,21.25
2023-03-06T10:00:51.379Z,21.28
2023-03-06T10:01:50.369Z,21.32
2023-03-06T10:02:51.519Z,21.36
2023-03-06T10:03:50.365Z,21.39
2023-03-06T10:04:50.427Z,21.41
2023-03-06T10:05:51.350Z,21.45
2023-03-06T10:06:51.341Z,21.46
2023-03-06T10:07:50.348Z,21.49
2023-03-06T10:08:51.315Z,21.52
2023-03-06T10:09:50.400Z,21.54
2023-03-06T10:10:51.314Z,21.57
2023-03-06T10:11:50.362Z,21.61
2023-03-06T10:12:50.377Z,21.63
2023-03-06T10:13:51.527Z,21.66
2023-03-06T10:14:51.503Z,21.68
2023-03-06T10:15:50.545Z,21.71
2023-03-06T10:16:51.586Z,21.74
2023-03-06T10:17:51.631Z,21.76
2023-03-06T10:18:50.683Z,21.78
2023-03-06T10:19:51.735Z,21.80
2023-03-06T10:20:50.758Z,21.82
2023-03-06T10:21:51.802Z,21.84
2023-03-06T10:23:00.622Z,21.86
2023-03-06T10:23:51.831Z,21.88
2023-03-06T10:24:50.827Z,21.92
2023-03-06T10:25:50.832Z,21.93
2023-03-06T10:26:51.951Z,21.95
2023-03-06T10:27:51.807Z,21.96
2023-03-06T10:28:51.812Z,21.98
2023-03-06T10:30:02.117Z,22.01
2023-03-06T10:30:51.915Z,22.06
2023-03-06T10:31:51.786Z,22.08
2023-03-06T10:32:51.810Z,22.09
2023-03-06T10:33:51.762Z,22.10
2023-03-06T10:34:51.776Z,22.12
2023-03-06T10:35:50.888Z,22.14
2023-03-06T10:36:51.759Z,22.16
2023-03-06T10:37:51.746Z,22.18
2023-03-06T10:38:51.758Z,22.19
2023-03-06T10:39:51.724Z,22.21
2023-03-06T10:40:51.714Z,22.23
2023-03-06T10:41:51.737Z,22.25
2023-03-06T10:42:58.768Z,22.27
2023-03-06T10:43:51.708Z,22.29
2023-03-06T10:44:51.026Z,22.30
2023-03-06T10:45:50.757Z,22.33
2023-03-06T10:46:51.697Z,22.35
2023-03-06T10:47:51.667Z,22.37
2023-03-06T10:48:51.682Z,22.37
2023-03-06T10:49:52.026Z,22.37
2023-03-06T10:50:51.625Z,22.37
2023-03-06T10:51:51.671Z,22.37
2023-03-06T10:52:51.618Z,22.39
2023-03-06T10:53:51.679Z,22.40
2023-03-06T10:54:51.047Z,22.39
2023-03-06T10:55:51.603Z,22.39
2023-03-06T10:56:51.593Z,22.37
2023-03-06T10:57:51.598Z,22.35
2023-03-06T10:58:51.577Z,22.31
2023-03-06T10:59:51.603Z,22.27
2023-03-06T11:00:51.552Z,22.23
2023-03-06T11:01:51.713Z,22.20
2023-03-06T11:02:51.532Z,22.15
2023-03-06T11:03:51.575Z,22.12
2023-03-06T11:04:51.648Z,22.10
2023-03-06T11:05:51.505Z,22.11
2023-03-06T11:06:51.510Z,22.11
2023-03-06T11:07:51.493Z,22.12
2023-03-06T11:08:51.532Z,22.12
2023-03-06T11:09:51.501Z,22.12
2023-03-06T11:10:51.484Z,22.13
2023-03-06T11:11:51.480Z,22.15
2023-03-06T11:12:51.477Z,22.16
2023-03-06T11:13:51.454Z,22.18
2023-03-06T11:14:51.453Z,22.21
2023-03-06T11:15:51.479Z,22.24
2023-03-06T11:16:51.445Z,22.27
2023-03-06T11:17:51.528Z,22.27
2023-03-06T11:18:51.444Z,22.29
2023-03-06T11:19:51.451Z,22.30
2023-03-06T11:20:52.843Z,22.31
2023-03-06T11:21:50.573Z,22.32
2023-03-06T11:22:51.575Z,22.33
2023-03-06T11:23:51.605Z,22.35
2023-03-06T11:24:51.604Z,22.36
2023-03-06T11:25:51.634Z,22.38
2023-03-06T11:26:51.647Z,22.39
2023-03-06T11:27:51.640Z,22.41
2023-03-06T11:28:50.678Z,22.43
2023-03-06T11:29:51.679Z,22.44
2023-03-06T11:30:51.680Z,22.44
2023-03-06T11:31:50.684Z,22.45
2023-03-06T11:32:51.702Z,22.47
2023-03-06T11:33:51.723Z,22.48
2023-03-06T11:34:51.717Z,22.49
2023-03-06T11:35:51.798Z,22.49
2023-03-06T11:36:51.711Z,22.50
2023-03-06T11:37:51.716Z,22.50
2023-03-06T11:38:51.725Z,22.51
2023-03-06T11:39:51.796Z,22.54
2023-03-06T11:40:51.752Z,22.57
2023-03-06T11:41:51.751Z,22.59
2023-03-06T11:42:51.763Z,22.61
2023-03-06T11:43:50.730Z,22.61
2023-03-06T11:44:50.725Z,22.62
2023-03-06T11:45:51.747Z,22.57
2023-03-06T11:46:51.850Z,22.53
2023-03-06T11:47:51.805Z,22.48
2023-03-06T11:48:51.801Z,22.48
2023-03-06T11:49:51.894Z,22.49
2023-03-06T11:50:51.827Z,22.50
2023-03-06T11:51:51.860Z,22.49
2023-03-06T11:52:51.869Z,22.47
2023-03-06T11:53:51.920Z,22.44
2023-03-06T11:54:51.913Z,22.44
2023-03-06T11:55:51.967Z,22.44
2023-03-06T11:56:52.040Z,22.45
2023-03-06T11:57:51.986Z,22.45
2023-03-06T11:58:52.014Z,22.46
2023-03-06T11:59:52.031Z,22.47
2023-03-06T12:00:52.034Z,22.49
2023-03-06T12:01:52.166Z,22.49
2023-03-06T12:02:52.044Z,22.50
2023-03-06T12:03:52.047Z,22.50
2023-03-06T12:04:52.073Z,22.51
2023-03-06T12:05:52.087Z,22.55
2023-03-06T12:06:52.070Z,22.57
2023-03-06T12:07:52.090Z,22.59
2023-03-06T12:08:52.078Z,22.62
2023-03-06T12:09:52.101Z,22.63
2023-03-06T12:10:52.446Z,22.64
2023-03-06T12:11:52.092Z,22.65
2023-03-06T12:12:52.083Z,22.65
2023-03-06T12:14:51.099Z,22.69
2023-03-06T12:15:52.101Z,22.70
2023-03-06T12:16:52.175Z,22.71
2023-03-06T12:17:52.085Z,22.71
2023-03-06T12:18:52.080Z,22.72
2023-03-06T12:19:51.112Z,22.72
2023-03-06T12:20:52.088Z,22.73
2023-03-06T12:21:52.111Z,22.73
2023-03-06T12:22:57.585Z,22.74
2023-03-06T12:23:52.080Z,22.76
2023-03-06T12:24:52.086Z,22.77
2023-03-06T12:25:52.066Z,22.78
2023-03-06T12:26:52.046Z,22.79
2023-03-06T12:27:52.033Z,22.78
2023-03-06T12:28:52.026Z,22.79
2023-03-06T12:29:52.075Z,22.80
2023-03-06T12:30:52.023Z,22.82
2023-03-06T12:31:52.055Z,22.83
2023-03-06T12:32:52.144Z,22.83
2023-03-06T12:33:51.994Z,22.82
2023-03-06T12:34:51.993Z,22.83
2023-03-06T12:35:51.015Z,22.84
2023-03-06T12:36:52.010Z,22.85
2023-03-06T12:37:51.990Z,22.85
2023-03-06T12:38:51.970Z,22.83
2023-03-06T12:39:52.065Z,22.80
2023-03-06T12:40:51.961Z,22.75
2023-03-06T12:41:51.937Z,22.69
2023-03-06T12:42:51.943Z,22.63
2023-03-06T12:43:51.918Z,22.57
2023-03-06T12:44:50.920Z,22.53
2023-03-06T12:45:51.981Z,22.47
2023-03-06T12:46:51.930Z,22.42
2023-03-06T12:47:51.895Z,22.37
2023-03-06T12:48:50.893Z,22.34
2023-03-06T12:49:50.899Z,22.31
2023-03-06T12:50:51.870Z,22.28
2023-03-06T12:51:51.864Z,22.26
2023-03-06T12:52:51.873Z,22.23
2023-03-06T12:53:51.893Z,22.21
2023-03-06T12:54:51.895Z,22.18